Bruce Mcallister — WDD5894 — position and weather

sailwx.info

Track history (hours):
 
Tides and Currents Weather Stations Pressure Air Temp Water Temp Dewpoint Dewpoint Depression Visibility Wind Speed Wind Dir Waves Ship Positions

Bruce Mcallister

Owner: McAllister Towing & Transportation Company Inc., Staten Island, NY. More information available from US FCC via Universal Licensing System and Coast Guard Vessel Documentation Center.

Last reported at 2018-Jun-19 16:24 UTC. Time now 2018-Jun-19 22:15 UTC.
Position N 40°37' W 074°12'.

Length 33 m; draft 4.9 m.

Type: Tug. MMSI: 367165430.

Date/timePositionNaut miles runAvg speedWind from/ knotsBaromVisibWave heightAir tempDewpointWater temp
2018-Jun-19 16:24N 40°37' W 074°12'3 8.5
2018-Jun-19 16:00N 40°39' W 074°09'1 2.1
2018-Jun-19 15:31N 40°40' W 074°08'0 0.0
2018-Jun-19 15:01N 40°40' W 074°08'0 0.0
2018-Jun-19 14:30N 40°40' W 074°08'0 0.0
2018-Jun-19 14:00N 40°40' W 074°08'0 0.0
2018-Jun-19 13:31N 40°40' W 074°08'0 0.0
2018-Jun-19 13:01N 40°40' W 074°08'0 0.0
2018-Jun-19 12:30N 40°40' W 074°08'0 0.0
2018-Jun-19 12:00N 40°40' W 074°08'0 0.0
2018-Jun-19 11:30N 40°40' W 074°08'0 0.0
2018-Jun-19 11:01N 40°40' W 074°08'0 0.0
2018-Jun-19 10:30N 40°40' W 074°08'1 1.2
2018-Jun-19 10:01N 40°40' W 074°08'2 3.0
2018-Jun-19 09:30N 40°39' W 074°07'1 1.8
2018-Jun-19 09:00N 40°39' W 074°08'1 2.6
2018-Jun-19 08:30N 40°38' W 074°10'0 0.0
2018-Jun-19 08:00N 40°38' W 074°10'0 0.0
2018-Jun-19 07:31N 40°38' W 074°10'0 0.0
2018-Jun-19 07:00N 40°38' W 074°10'1 0.3
2018-Jun-19 03:31N 40°39' W 074°11'0 6.1
2018-Jun-19 03:31N 40°39' W 074°11'3 7.0
2018-Jun-19 03:01N 40°39' W 074°06'3 5.3
2018-Jun-19 02:30N 40°39' W 074°03'0 0.1
2018-Jun-19 02:01N 40°39' W 074°03'3 6.1
2018-Jun-19 01:30N 40°39' W 074°07'2 4.4
2018-Jun-19 01:00N 40°38' W 074°10'0 0.0
2018-Jun-19 00:30N 40°38' W 074°10'0 0.0
2018-Jun-19 00:01N 40°38' W 074°10'3 5.0
2018-Jun-18 23:30N 40°41' W 074°09'0 0.0
2018-Jun-18 23:01N 40°41' W 074°09'0 0.0
2018-Jun-18 22:31N 40°41' W 074°09'0 0.0
2018-Jun-18 22:01N 40°41' W 074°09'0 0.0
2018-Jun-18 21:30N 40°41' W 074°09'0 0.0
2018-Jun-18 21:00N 40°41' W 074°09'1 1.0
2018-Jun-18 20:29N 40°40' W 074°08'0 0.0
2018-Jun-18 20:01N 40°40' W 074°08'0 0.0
2018-Jun-18 19:31N 40°40' W 074°08'0 0.0
2018-Jun-18 19:01N 40°40' W 074°08'3 0.8
2018-Jun-18 15:16N 40°39' W 074°11'1 5.8
2018-Jun-18 15:00N 40°39' W 074°09'3 5.8
2018-Jun-18 14:31N 40°39' W 074°06'3 5.0
2018-Jun-18 14:01N 40°37' W 074°03'3 6.8
2018-Jun-18 13:30N 40°39' W 074°07'2 2.8
2018-Jun-18 12:46N 40°38' W 074°10'0 0.0
2018-Jun-18 12:19N 40°38' W 074°10'0 0.0
2018-Jun-18 11:55N 40°38' W 074°10'0 0.0
2018-Jun-18 11:28N 40°38' W 074°10'0 0.0
2018-Jun-18 11:00N 40°38' W 074°10'3 6.4
2018-Jun-18 10:31N 40°41' W 074°08'1 1.6
2018-Jun-18 09:59N 40°42' W 074°09'0 0.6
2018-Jun-18 09:26N 40°42' W 074°08'2 5.7
2018-Jun-18 09:00N 40°39' W 074°09'3 6.2
2018-Jun-18 08:31N 40°39' W 074°05'1 1.1
2018-Jun-18 08:01N 40°39' W 074°05'2 4.8
2018-Jun-18 07:30N 40°40' W 074°08'0 0.7
2018-Jun-18 07:00N 40°40' W 074°08'0 0.1
2018-Jun-18 06:30N 40°40' W 074°08'1 1.4
2018-Jun-18 06:00N 40°40' W 074°09'3 6.9
2018-Jun-18 05:31N 40°40' W 074°04'1 1.6
2018-Jun-18 05:00N 40°40' W 074°05'0 0.0
2018-Jun-18 04:30N 40°40' W 074°05'0 0.0
2018-Jun-18 04:01N 40°40' W 074°05'0 0.0
2018-Jun-18 03:31N 40°40' W 074°05'0 0.0
2018-Jun-18 03:01N 40°40' W 074°05'0 0.0
2018-Jun-18 02:31N 40°40' W 074°05'0 0.0
2018-Jun-18 02:01N 40°40' W 074°05'0 0.0
2018-Jun-18 01:30N 40°40' W 074°05'0 0.0
2018-Jun-18 01:01N 40°40' W 074°05'0 0.1
2018-Jun-18 00:31N 40°40' W 074°05'2 3.2
2018-Jun-18 00:01N 40°39' W 074°06'0 0.0
2018-Jun-17 23:26N 40°39' W 074°06'0 0.0
2018-Jun-17 22:59N 40°39' W 074°06'0 0.0
2018-Jun-17 22:31N 40°39' W 074°06'0 0.0
2018-Jun-17 22:01N 40°39' W 074°06'0 0.0
2018-Jun-17 21:31N 40°39' W 074°06'0 0.0
2018-Jun-17 21:01N 40°39' W 074°06'0 0.0
2018-Jun-17 20:30N 40°39' W 074°06'0 0.0
2018-Jun-17 19:59N 40°39' W 074°06'0 0.0
2018-Jun-17 19:31N 40°39' W 074°06'0 0.0
2018-Jun-17 19:00N 40°39' W 074°06'0 0.0
2018-Jun-17 18:31N 40°39' W 074°06'0 0.0
2018-Jun-17 18:00N 40°39' W 074°06'0 0.0
2018-Jun-17 17:31N 40°39' W 074°06'0 0.0
2018-Jun-17 17:01N 40°39' W 074°06'1 0.5
2018-Jun-17 15:50N 40°39' W 074°06'2 4.2
2018-Jun-17 15:29N 40°39' W 074°05'1 1.6
2018-Jun-17 15:00N 40°40' W 074°04'0 0.0
2018-Jun-17 14:31N 40°40' W 074°04'0 0.0
2018-Jun-17 14:01N 40°40' W 074°04'0 0.0
2018-Jun-17 13:31N 40°40' W 074°04'0 0.0
2018-Jun-17 13:01N 40°40' W 074°04'1 1.8
2018-Jun-17 12:30N 40°40' W 074°03'5 9.3
2018-Jun-17 12:00N 40°43' W 073°58'4 1.9
2018-Jun-17 09:42N 40°47' W 073°55'1 7.0
2018-Jun-17 09:29N 40°46' W 073°57'3 7.3
2018-Jun-17 09:00N 40°43' W 073°58'4 7.2
2018-Jun-17 08:31N 40°40' W 074°02'5 9.7
2018-Jun-17 08:00N 40°39' W 074°08'1 2.6
2018-Jun-17 07:31N 40°38' W 074°10'0 0.0
2018-Jun-17 07:01N 40°38' W 074°10'0 0.0
2018-Jun-17 06:30N 40°38' W 074°10'0 0.0
2018-Jun-17 06:01N 40°38' W 074°10'0 0.0
2018-Jun-17 05:31N 40°38' W 074°10'0 0.0
2018-Jun-17 05:00N 40°38' W 074°10'0 0.0
2018-Jun-17 04:31N 40°38' W 074°10'0 0.0
2018-Jun-17 04:00N 40°38' W 074°10'0 0.0
2018-Jun-17 03:29N 40°38' W 074°10'0 0.0
2018-Jun-17 03:00N 40°38' W 074°10'0 0.0
2018-Jun-17 02:30N 40°38' W 074°10'0 0.0
2018-Jun-17 02:01N 40°38' W 074°10'0 0.0
2018-Jun-17 01:31N 40°38' W 074°10'0 0.0
2018-Jun-17 01:00N 40°38' W 074°10'2 0.6
2018-Jun-16 22:11N 40°38' W 074°12'2 9.9
2018-Jun-16 22:01N 40°39' W 074°10'3 2.8
2018-Jun-16 20:57N 40°39' W 074°06'2 4.3
2018-Jun-16 20:31N 40°39' W 074°04'1 1.9
2018-Jun-16 20:01N 40°38' W 074°04'0 0.0
2018-Jun-16 19:31N 40°38' W 074°04'0 0.0
2018-Jun-16 19:00N 40°38' W 074°04'3 5.7
2018-Jun-16 18:30N 40°39' W 074°08'2 2.9
2018-Jun-16 17:57N 40°38' W 074°10'0 0.0
2018-Jun-16 17:31N 40°38' W 074°10'0 0.0
2018-Jun-16 17:00N 40°38' W 074°10'4 2.2
2018-Jun-16 15:14N 40°35' W 074°12'1 1.9
2018-Jun-16 14:54N 40°36' W 074°12'0 0.0
2018-Jun-16 13:08N 40°36' W 074°12'0 0.0
2018-Jun-16 12:45N 40°36' W 074°12'0 0.0
2018-Jun-16 10:25N 40°36' W 074°12'0 0.0
2018-Jun-16 09:58N 40°36' W 074°12'0 0.0
2018-Jun-16 09:06N 40°36' W 074°12'0 0.0
2018-Jun-16 08:58N 40°36' W 074°12'0 0.0
2018-Jun-16 08:30N 40°36' W 074°12'0 0.0
2018-Jun-16 07:57N 40°36' W 074°12'2 0.1
2018-Jun-15 15:40N 40°38' W 074°12'0 0.0
2018-Jun-15 15:29N 40°38' W 074°12'0 0.0
2018-Jun-15 13:08N 40°38' W 074°12'0 0.0
2018-Jun-15 12:52N 40°38' W 074°12'0 0.0
2018-Jun-15 11:43N 40°38' W 074°12'0 0.0
2018-Jun-15 11:27N 40°38' W 074°12'1 1.7
2018-Jun-15 11:00N 40°38' W 074°12'1 0.6
2018-Jun-15 10:07N 40°39' W 074°11'0 4.1
2018-Jun-15 10:00N 40°39' W 074°11'3 5.4
2018-Jun-15 09:31N 40°39' W 074°07'0 0.9
2018-Jun-15 09:00N 40°39' W 074°08'2 3.5
2018-Jun-15 08:30N 40°38' W 074°10'0 0.0
2018-Jun-15 08:01N 40°38' W 074°10'0 0.0
2018-Jun-15 07:30N 40°38' W 074°10'0 0.0
2018-Jun-15 07:01N 40°38' W 074°10'0 0.0
2018-Jun-15 06:30N 40°38' W 074°10'0 0.0
2018-Jun-15 06:01N 40°38' W 074°10'0 0.0
2018-Jun-15 05:31N 40°38' W 074°10'0 0.0
2018-Jun-15 05:00N 40°38' W 074°10'1 1.8
2018-Jun-15 04:31N 40°39' W 074°09'4 8.2
2018-Jun-15 04:01N 40°40' W 074°03'4 8.4
2018-Jun-15 03:29N 40°42' W 073°59'1 1.1
2018-Jun-15 03:00N 40°42' W 073°58'0 0.0
2018-Jun-15 02:31N 40°42' W 073°58'0 0.1
2018-Jun-15 02:01N 40°43' W 073°58'3 6.2
2018-Jun-15 01:30N 40°41' W 074°02'5 9.7
2018-Jun-15 00:59N 40°39' W 074°08'1 3.0
2018-Jun-15 00:30N 40°38' W 074°10'0 0.0
2018-Jun-14 23:59N 40°38' W 074°10'0 0.0
2018-Jun-14 23:30N 40°38' W 074°10'0 0.0
2018-Jun-14 22:59N 40°38' W 074°10'0 0.0
2018-Jun-14 22:30N 40°38' W 074°10'0 0.0
2018-Jun-14 22:00N 40°38' W 074°10'0 0.0
2018-Jun-14 21:31N 40°38' W 074°10'0 0.0
2018-Jun-14 21:00N 40°38' W 074°10'0 0.0
2018-Jun-14 20:31N 40°38' W 074°10'0 0.0
2018-Jun-14 20:00N 40°38' W 074°10'0 0.0
2018-Jun-14 19:30N 40°38' W 074°10'0 0.0
2018-Jun-14 19:01N 40°38' W 074°10'0 0.0
2018-Jun-14 18:30N 40°38' W 074°10'0 0.0
2018-Jun-14 18:00N 40°38' W 074°10'0 0.0
2018-Jun-14 17:31N 40°38' W 074°10'0 0.0
2018-Jun-14 17:00N 40°38' W 074°10'0 0.0
2018-Jun-14 16:30N 40°38' W 074°10'0 0.0
2018-Jun-14 16:01N 40°38' W 074°10'0 0.0
2018-Jun-14 15:30N 40°38' W 074°10'0 0.0
2018-Jun-14 15:00N 40°38' W 074°10'0 0.0
2018-Jun-14 14:29N 40°38' W 074°10'0 0.0
2018-Jun-14 14:01N 40°38' W 074°10'0 0.0
2018-Jun-14 13:30N 40°38' W 074°10'0 0.0
2018-Jun-14 13:00N 40°38' W 074°10'2 3.6
2018-Jun-14 12:31N 40°40' W 074°08'1 1.1
2018-Jun-14 12:01N 40°40' W 074°08'0 0.0
2018-Jun-14 11:31N 40°40' W 074°08'0 0.0
2018-Jun-14 11:00N 40°40' W 074°08'3 4.4
2018-Jun-14 10:21N 40°39' W 074°11'0 0.1
2018-Jun-14 09:56N 40°39' W 074°11'2 5.4
2018-Jun-14 09:31N 40°39' W 074°08'4 7.6
2018-Jun-14 09:01N 40°38' W 074°03'1 2.4
2018-Jun-14 08:30N 40°39' W 074°05'4 1.3
2018-Jun-14 05:25N 40°38' W 074°10'2 4.4
2018-Jun-14 05:01N 40°39' W 074°08'1 2.4
2018-Jun-14 04:30N 40°39' W 074°09'1 2.3
2018-Jun-14 04:00N 40°41' W 074°08'1 1.6
2018-Jun-14 03:31N 40°40' W 074°09'2 3.3
2018-Jun-14 03:00N 40°38' W 074°10'0 0.0
2018-Jun-14 02:29N 40°38' W 074°10'3 6.5
2018-Jun-14 02:00N 40°39' W 074°06'0 0.1
2018-Jun-14 01:31N 40°39' W 074°06'0 0.0
2018-Jun-14 01:00N 40°39' W 074°06'1 1.3
2018-Jun-14 00:30N 40°39' W 074°05'1 2.1
2018-Jun-14 00:01N 40°40' W 074°04'3 5.6
2018-Jun-13 23:28N 40°39' W 074°08'2 3.5
2018-Jun-13 23:01N 40°38' W 074°10'0 0.0
2018-Jun-13 22:31N 40°38' W 074°10'0 0.0
2018-Jun-13 22:00N 40°38' W 074°10'0 0.0
2018-Jun-13 21:28N 40°38' W 074°10'2 3.5
2018-Jun-13 21:00N 40°39' W 074°08'1 2.9
2018-Jun-13 20:30N 40°40' W 074°09'0 0.0
2018-Jun-13 20:00N 40°40' W 074°09'4 8.3
2018-Jun-13 19:30N 40°38' W 074°04'10 3.6
2018-Jun-13 16:50N 40°29' W 074°03'410.4
2018-Jun-13 16:25N 40°33' W 074°02'512.7
2018-Jun-13 16:00N 40°38' W 074°03'5 8.6
2018-Jun-13 15:26N 40°38' W 074°10'0 0.0
2018-Jun-13 14:49N 40°38' W 074°10'0 0.0
2018-Jun-13 14:28N 40°38' W 074°10'0 0.0
2018-Jun-13 14:00N 40°38' W 074°10'0 0.0
2018-Jun-13 13:30N 40°38' W 074°10'0 0.0
2018-Jun-13 12:57N 40°38' W 074°10'0 0.0
2018-Jun-13 12:12N 40°38' W 074°10'0 0.0
2018-Jun-13 11:53N 40°38' W 074°10'0 0.0
2018-Jun-13 11:27N 40°38' W 074°10'0 0.0
2018-Jun-13 10:56N 40°38' W 074°10'2 3.5
2018-Jun-13 10:30N 40°40' W 074°09'1 2.8
2018-Jun-13 10:00N 40°41' W 074°09'0 0.9
2018-Jun-13 09:30N 40°41' W 074°09'2 4.6
2018-Jun-13 09:00N 40°39' W 074°09'4 7.4
2018-Jun-13 08:30N 40°39' W 074°04'1 2.0
2018-Jun-13 08:00N 40°39' W 074°05'4 1.6
2018-Jun-13 05:47N 40°38' W 074°10'0 0.0
2018-Jun-13 04:27N 40°38' W 074°10'0 0.0
2018-Jun-13 03:58N 40°38' W 074°10'0 0.0
2018-Jun-13 02:38N 40°38' W 074°10'1 4.5
2018-Jun-13 02:30N 40°39' W 074°09'2 3.2
2018-Jun-13 02:00N 40°40' W 074°09'1 2.2
2018-Jun-13 01:29N 40°39' W 074°09'3 5.4
2018-Jun-13 01:00N 40°39' W 074°05'4 7.1
2018-Jun-13 00:30N 40°41' W 074°02'4 8.6
2018-Jun-13 00:00N 40°46' W 074°01'8 1.8
2018-Jun-12 19:35N 40°53' W 073°56'3 9.1
2018-Jun-12 19:12N 40°49' W 073°58'2 8.7
2018-Jun-12 18:59N 40°48' W 073°59'4 8.3
2018-Jun-12 18:30N 40°44' W 074°01'4 8.3
2018-Jun-12 18:00N 40°40' W 074°03'5 9.8
2018-Jun-12 17:30N 40°38' W 074°09'3 0.6
2018-Jun-12 12:56N 40°38' W 074°12'0 0.1
2018-Jun-12 12:30N 40°38' W 074°12'0 0.0
2018-Jun-12 11:57N 40°38' W 074°12'1 2.1
2018-Jun-12 11:24N 40°39' W 074°11'3 6.0
2018-Jun-12 10:57N 40°39' W 074°07'3 5.6
2018-Jun-12 10:28N 40°39' W 074°04'2 3.8
2018-Jun-12 10:00N 40°37' W 074°03'5 3.6
2018-Jun-12 08:33N 40°38' W 074°10'0 0.0
2018-Jun-12 08:20N 40°38' W 074°10'0 0.0
2018-Jun-12 07:37N 40°38' W 074°10'0 0.0
2018-Jun-12 07:30N 40°38' W 074°10'0 0.0
2018-Jun-12 06:52N 40°38' W 074°10'0 0.0
2018-Jun-12 06:30N 40°38' W 074°10'0 0.0
2018-Jun-12 05:47N 40°38' W 074°10'0 0.0
2018-Jun-12 05:26N 40°38' W 074°10'0 0.0
2018-Jun-12 00:07N 40°38' W 074°10'0 0.0
2018-Jun-11 23:57N 40°38' W 074°10'0 0.0
2018-Jun-11 16:49N 40°38' W 074°10'0 0.0
2018-Jun-11 16:30N 40°38' W 074°10'0 0.0
2018-Jun-11 15:38N 40°38' W 074°10'0 0.0
2018-Jun-11 15:30N 40°38' W 074°10'2 3.3
2018-Jun-11 14:55N 40°40' W 074°08'2 3.5
2018-Jun-11 14:29N 40°39' W 074°09'2 4.8
2018-Jun-11 14:00N 40°39' W 074°06'3 1.0
2018-Jun-11 10:52N 40°39' W 074°10'2 6.2
2018-Jun-11 10:29N 40°40' W 074°08'1 0.9
2018-Jun-11 09:11N 40°39' W 074°09'1 2.9
2018-Jun-11 08:55N 40°39' W 074°09'3 7.1
2018-Jun-11 08:30N 40°39' W 074°05'1 2.4
2018-Jun-11 07:59N 40°38' W 074°04'5 5.3
2018-Jun-11 07:07N 40°38' W 074°10'0 1.0
2018-Jun-11 06:53N 40°38' W 074°10'1 2.6
2018-Jun-11 06:30N 40°39' W 074°09'1 2.5
2018-Jun-11 06:00N 40°40' W 074°08'0 0.0
2018-Jun-11 05:30N 40°40' W 074°08'0 0.0
2018-Jun-11 04:42N 40°40' W 074°08'0 0.0
2018-Jun-11 04:30N 40°40' W 074°08'0 0.0
2018-Jun-11 03:40N 40°40' W 074°08'0 0.0
2018-Jun-11 03:30N 40°40' W 074°08'0 0.0
2018-Jun-11 03:00N 40°40' W 074°08'0 0.0
2018-Jun-11 02:30N 40°40' W 074°08'0 0.0
2018-Jun-11 02:00N 40°40' W 074°08'0 0.0
2018-Jun-11 01:30N 40°40' W 074°08'0 0.0
2018-Jun-11 01:00N 40°40' W 074°08'0 0.0
2018-Jun-11 00:30N 40°40' W 074°08'0 0.0
2018-Jun-11 00:00N 40°40' W 074°08'4 2.6
2018-Jun-10 22:33N 40°38' W 074°12'0 0.1
2018-Jun-10 22:30N 40°38' W 074°12'0 0.7
2018-Jun-10 21:57N 40°38' W 074°12'2 4.2
2018-Jun-10 21:29N 40°39' W 074°09'3 6.0
2018-Jun-10 21:00N 40°39' W 074°05'2 3.3
2018-Jun-10 20:30N 40°39' W 074°03'2 3.8
2018-Jun-10 20:00N 40°40' W 074°05'0 0.0
2018-Jun-10 19:30N 40°40' W 074°05'0 0.0
2018-Jun-10 19:00N 40°40' W 074°05'0 0.0
2018-Jun-10 18:28N 40°40' W 074°05'0 0.0
2018-Jun-10 18:00N 40°40' W 074°05'0 0.0
2018-Jun-10 17:30N 40°40' W 074°05'0 0.0
2018-Jun-10 17:00N 40°40' W 074°05'0 0.0
2018-Jun-10 16:28N 40°40' W 074°05'0 0.0
2018-Jun-10 16:00N 40°40' W 074°05'0 0.0
2018-Jun-10 15:29N 40°40' W 074°05'0 0.0
2018-Jun-10 15:00N 40°40' W 074°05'0 0.0
2018-Jun-10 14:00N 40°40' W 074°05'0 0.0
2018-Jun-10 13:30N 40°40' W 074°05'0 0.0
2018-Jun-10 13:00N 40°40' W 074°05'0 0.0
2018-Jun-10 12:30N 40°40' W 074°05'0 0.0
2018-Jun-10 12:00N 40°40' W 074°05'0 0.0
2018-Jun-10 11:30N 40°40' W 074°05'0 0.0
2018-Jun-10 11:00N 40°40' W 074°05'0 0.0
2018-Jun-10 10:30N 40°40' W 074°05'0 0.0
2018-Jun-10 10:00N 40°40' W 074°05'0 0.0
2018-Jun-10 09:29N 40°40' W 074°05'0 0.0
2018-Jun-10 09:00N 40°40' W 074°05'0 0.0
2018-Jun-10 08:30N 40°40' W 074°05'0 0.0
2018-Jun-10 08:00N 40°40' W 074°05'0 0.0
2018-Jun-10 07:30N 40°40' W 074°05'0 0.0
2018-Jun-10 07:00N 40°40' W 074°05'0 0.0
2018-Jun-10 06:30N 40°40' W 074°05'0 0.0
2018-Jun-10 06:00N 40°40' W 074°05'0 0.0
2018-Jun-10 05:30N 40°40' W 074°05'0 0.0
2018-Jun-10 05:00N 40°40' W 074°05'0 0.0
2018-Jun-10 04:30N 40°40' W 074°05'0 0.0
2018-Jun-10 04:00N 40°40' W 074°05'0 0.0
2018-Jun-10 03:30N 40°40' W 074°05'0 0.0
2018-Jun-10 03:00N 40°40' W 074°05'0 0.0
2018-Jun-10 02:30N 40°40' W 074°05'0 0.0
2018-Jun-10 02:00N 40°40' W 074°05'0 0.0
2018-Jun-10 01:30N 40°40' W 074°05'0 0.0
2018-Jun-10 01:00N 40°40' W 074°05'0 0.0
2018-Jun-10 00:30N 40°40' W 074°05'2 4.2
2018-Jun-10 00:00N 40°40' W 074°02'4 7.0
2018-Jun-09 23:30N 40°42' W 073°58'0 0.1
2018-Jun-09 23:00N 40°42' W 073°58'1 1.8
2018-Jun-09 22:30N 40°42' W 073°60'2 4.8
2018-Jun-09 22:00N 40°41' W 074°02'2 3.5
2018-Jun-09 21:30N 40°40' W 074°03'1 1.1
2018-Jun-09 21:00N 40°40' W 074°04'0 0.7
2018-Jun-09 20:30N 40°40' W 074°05'0 0.0
2018-Jun-09 20:00N 40°40' W 074°05'0 0.0
2018-Jun-09 19:30N 40°40' W 074°05'0 0.0
2018-Jun-09 19:00N 40°40' W 074°05'0 0.0
2018-Jun-09 18:30N 40°40' W 074°05'0 0.0
2018-Jun-09 18:00N 40°40' W 074°05'0 0.0
2018-Jun-09 17:30N 40°40' W 074°05'0 0.0
2018-Jun-09 17:00N 40°40' W 074°05'0 0.0
2018-Jun-09 16:30N 40°40' W 074°05'  
Track history (hours):
 
Tides and Currents Weather Stations Pressure Air Temp Water Temp Dewpoint Dewpoint Depression Visibility Wind Speed Wind Dir Waves Ship Positions

Bruce Mcallister

Owner: McAllister Towing & Transportation Company Inc., Staten Island, NY. More information available from US FCC via Universal Licensing System and Coast Guard Vessel Documentation Center.

Last reported at 2018-Jun-19 16:24 UTC. Time now 2018-Jun-19 22:15 UTC.
Position N 40°37' W 074°12'.

Length 33 m; draft 4.9 m.

Type: Tug. MMSI: 367165430.

Date/timePositionNaut miles runAvg speedWind from/ knotsBaromVisibWave heightAir tempDewpointWater temp
2018-Jun-19 16:24N 40°37' W 074°12'3 8.5
2018-Jun-19 16:00N 40°39' W 074°09'1 2.1
2018-Jun-19 15:31N 40°40' W 074°08'0 0.0
2018-Jun-19 15:01N 40°40' W 074°08'0 0.0
2018-Jun-19 14:30N 40°40' W 074°08'0 0.0
2018-Jun-19 14:00N 40°40' W 074°08'0 0.0
2018-Jun-19 13:31N 40°40' W 074°08'0 0.0
2018-Jun-19 13:01N 40°40' W 074°08'0 0.0
2018-Jun-19 12:30N 40°40' W 074°08'0 0.0
2018-Jun-19 12:00N 40°40' W 074°08'0 0.0
2018-Jun-19 11:30N 40°40' W 074°08'0 0.0
2018-Jun-19 11:01N 40°40' W 074°08'0 0.0
2018-Jun-19 10:30N 40°40' W 074°08'1 1.2
2018-Jun-19 10:01N 40°40' W 074°08'2 3.0
2018-Jun-19 09:30N 40°39' W 074°07'1 1.8
2018-Jun-19 09:00N 40°39' W 074°08'1 2.6
2018-Jun-19 08:30N 40°38' W 074°10'0 0.0
2018-Jun-19 08:00N 40°38' W 074°10'0 0.0
2018-Jun-19 07:31N 40°38' W 074°10'0 0.0
2018-Jun-19 07:00N 40°38' W 074°10'1 0.3
2018-Jun-19 03:31N 40°39' W 074°11'0 6.1
2018-Jun-19 03:31N 40°39' W 074°11'3 7.0
2018-Jun-19 03:01N 40°39' W 074°06'3 5.3
2018-Jun-19 02:30N 40°39' W 074°03'0 0.1
2018-Jun-19 02:01N 40°39' W 074°03'3 6.1
2018-Jun-19 01:30N 40°39' W 074°07'2 4.4
2018-Jun-19 01:00N 40°38' W 074°10'0 0.0
2018-Jun-19 00:30N 40°38' W 074°10'0 0.0
2018-Jun-19 00:01N 40°38' W 074°10'3 5.0
2018-Jun-18 23:30N 40°41' W 074°09'0 0.0
2018-Jun-18 23:01N 40°41' W 074°09'0 0.0
2018-Jun-18 22:31N 40°41' W 074°09'0 0.0
2018-Jun-18 22:01N 40°41' W 074°09'0 0.0
2018-Jun-18 21:30N 40°41' W 074°09'0 0.0
2018-Jun-18 21:00N 40°41' W 074°09'1 1.0
2018-Jun-18 20:29N 40°40' W 074°08'0 0.0
2018-Jun-18 20:01N 40°40' W 074°08'0 0.0
2018-Jun-18 19:31N 40°40' W 074°08'0 0.0
2018-Jun-18 19:01N 40°40' W 074°08'3 0.8
2018-Jun-18 15:16N 40°39' W 074°11'1 5.8
2018-Jun-18 15:00N 40°39' W 074°09'3 5.8
2018-Jun-18 14:31N 40°39' W 074°06'3 5.0
2018-Jun-18 14:01N 40°37' W 074°03'3 6.8
2018-Jun-18 13:30N 40°39' W 074°07'2 2.8
2018-Jun-18 12:46N 40°38' W 074°10'0 0.0
2018-Jun-18 12:19N 40°38' W 074°10'0 0.0
2018-Jun-18 11:55N 40°38' W 074°10'0 0.0
2018-Jun-18 11:28N 40°38' W 074°10'0 0.0
2018-Jun-18 11:00N 40°38' W 074°10'3 6.4
2018-Jun-18 10:31N 40°41' W 074°08'1 1.6
2018-Jun-18 09:59N 40°42' W 074°09'0 0.6
2018-Jun-18 09:26N 40°42' W 074°08'2 5.7
2018-Jun-18 09:00N 40°39' W 074°09'3 6.2
2018-Jun-18 08:31N 40°39' W 074°05'1 1.1
2018-Jun-18 08:01N 40°39' W 074°05'2 4.8
2018-Jun-18 07:30N 40°40' W 074°08'0 0.7
2018-Jun-18 07:00N 40°40' W 074°08'0 0.1
2018-Jun-18 06:30N 40°40' W 074°08'1 1.4
2018-Jun-18 06:00N 40°40' W 074°09'3 6.9
2018-Jun-18 05:31N 40°40' W 074°04'1 1.6
2018-Jun-18 05:00N 40°40' W 074°05'0 0.0
2018-Jun-18 04:30N 40°40' W 074°05'0 0.0
2018-Jun-18 04:01N 40°40' W 074°05'0 0.0
2018-Jun-18 03:31N 40°40' W 074°05'0 0.0
2018-Jun-18 03:01N 40°40' W 074°05'0 0.0
2018-Jun-18 02:31N 40°40' W 074°05'0 0.0
2018-Jun-18 02:01N 40°40' W 074°05'0 0.0
2018-Jun-18 01:30N 40°40' W 074°05'0 0.0
2018-Jun-18 01:01N 40°40' W 074°05'0 0.1
2018-Jun-18 00:31N 40°40' W 074°05'2 3.2
2018-Jun-18 00:01N 40°39' W 074°06'0 0.0
2018-Jun-17 23:26N 40°39' W 074°06'0 0.0
2018-Jun-17 22:59N 40°39' W 074°06'0 0.0
2018-Jun-17 22:31N 40°39' W 074°06'0 0.0
2018-Jun-17 22:01N 40°39' W 074°06'0 0.0
2018-Jun-17 21:31N 40°39' W 074°06'0 0.0
2018-Jun-17 21:01N 40°39' W 074°06'0 0.0
2018-Jun-17 20:30N 40°39' W 074°06'0 0.0
2018-Jun-17 19:59N 40°39' W 074°06'0 0.0
2018-Jun-17 19:31N 40°39' W 074°06'0 0.0
2018-Jun-17 19:00N 40°39' W 074°06'0 0.0
2018-Jun-17 18:31N 40°39' W 074°06'0 0.0
2018-Jun-17 18:00N 40°39' W 074°06'0 0.0
2018-Jun-17 17:31N 40°39' W 074°06'0 0.0
2018-Jun-17 17:01N 40°39' W 074°06'1 0.5
2018-Jun-17 15:50N 40°39' W 074°06'2 4.2
2018-Jun-17 15:29N 40°39' W 074°05'1 1.6
2018-Jun-17 15:00N 40°40' W 074°04'0 0.0
2018-Jun-17 14:31N 40°40' W 074°04'0 0.0
2018-Jun-17 14:01N 40°40' W 074°04'0 0.0
2018-Jun-17 13:31N 40°40' W 074°04'0 0.0
2018-Jun-17 13:01N 40°40' W 074°04'1 1.8
2018-Jun-17 12:30N 40°40' W 074°03'5 9.3
2018-Jun-17 12:00N 40°43' W 073°58'4 1.9
2018-Jun-17 09:42N 40°47' W 073°55'1 7.0
2018-Jun-17 09:29N 40°46' W 073°57'3 7.3
2018-Jun-17 09:00N 40°43' W 073°58'4 7.2
2018-Jun-17 08:31N 40°40' W 074°02'5 9.7
2018-Jun-17 08:00N 40°39' W 074°08'1 2.6
2018-Jun-17 07:31N 40°38' W 074°10'0 0.0
2018-Jun-17 07:01N 40°38' W 074°10'0 0.0
2018-Jun-17 06:30N 40°38' W 074°10'0 0.0
2018-Jun-17 06:01N 40°38' W 074°10'0 0.0
2018-Jun-17 05:31N 40°38' W 074°10'0 0.0
2018-Jun-17 05:00N 40°38' W 074°10'0 0.0
2018-Jun-17 04:31N 40°38' W 074°10'0 0.0
2018-Jun-17 04:00N 40°38' W 074°10'0 0.0
2018-Jun-17 03:29N 40°38' W 074°10'0 0.0
2018-Jun-17 03:00N 40°38' W 074°10'0 0.0
2018-Jun-17 02:30N 40°38' W 074°10'0 0.0
2018-Jun-17 02:01N 40°38' W 074°10'0 0.0
2018-Jun-17 01:31N 40°38' W 074°10'0 0.0
2018-Jun-17 01:00N 40°38' W 074°10'2 0.6
2018-Jun-16 22:11N 40°38' W 074°12'2 9.9
2018-Jun-16 22:01N 40°39' W 074°10'3 2.8
2018-Jun-16 20:57N 40°39' W 074°06'2 4.3
2018-Jun-16 20:31N 40°39' W 074°04'1 1.9
2018-Jun-16 20:01N 40°38' W 074°04'0 0.0
2018-Jun-16 19:31N 40°38' W 074°04'0 0.0
2018-Jun-16 19:00N 40°38' W 074°04'3 5.7
2018-Jun-16 18:30N 40°39' W 074°08'2 2.9
2018-Jun-16 17:57N 40°38' W 074°10'0 0.0
2018-Jun-16 17:31N 40°38' W 074°10'0 0.0
2018-Jun-16 17:00N 40°38' W 074°10'4 2.2
2018-Jun-16 15:14N 40°35' W 074°12'1 1.9
2018-Jun-16 14:54N 40°36' W 074°12'0 0.0
2018-Jun-16 13:08N 40°36' W 074°12'0 0.0
2018-Jun-16 12:45N 40°36' W 074°12'0 0.0
2018-Jun-16 10:25N 40°36' W 074°12'0 0.0
2018-Jun-16 09:58N 40°36' W 074°12'0 0.0
2018-Jun-16 09:06N 40°36' W 074°12'0 0.0
2018-Jun-16 08:58N 40°36' W 074°12'0 0.0
2018-Jun-16 08:30N 40°36' W 074°12'0 0.0
2018-Jun-16 07:57N 40°36' W 074°12'2 0.1
2018-Jun-15 15:40N 40°38' W 074°12'0 0.0
2018-Jun-15 15:29N 40°38' W 074°12'0 0.0
2018-Jun-15 13:08N 40°38' W 074°12'0 0.0
2018-Jun-15 12:52N 40°38' W 074°12'0 0.0
2018-Jun-15 11:43N 40°38' W 074°12'0 0.0
2018-Jun-15 11:27N 40°38' W 074°12'1 1.7
2018-Jun-15 11:00N 40°38' W 074°12'1 0.6
2018-Jun-15 10:07N 40°39' W 074°11'0 4.1
2018-Jun-15 10:00N 40°39' W 074°11'3 5.4
2018-Jun-15 09:31N 40°39' W 074°07'0 0.9
2018-Jun-15 09:00N 40°39' W 074°08'2 3.5
2018-Jun-15 08:30N 40°38' W 074°10'0 0.0
2018-Jun-15 08:01N 40°38' W 074°10'0 0.0
2018-Jun-15 07:30N 40°38' W 074°10'0 0.0
2018-Jun-15 07:01N 40°38' W 074°10'0 0.0
2018-Jun-15 06:30N 40°38' W 074°10'0 0.0
2018-Jun-15 06:01N 40°38' W 074°10'0 0.0
2018-Jun-15 05:31N 40°38' W 074°10'0 0.0
2018-Jun-15 05:00N 40°38' W 074°10'1 1.8
2018-Jun-15 04:31N 40°39' W 074°09'4 8.2
2018-Jun-15 04:01N 40°40' W 074°03'4 8.4
2018-Jun-15 03:29N 40°42' W 073°59'1 1.1
2018-Jun-15 03:00N 40°42' W 073°58'0 0.0
2018-Jun-15 02:31N 40°42' W 073°58'0 0.1
2018-Jun-15 02:01N 40°43' W 073°58'3 6.2
2018-Jun-15 01:30N 40°41' W 074°02'5 9.7
2018-Jun-15 00:59N 40°39' W 074°08'1 3.0
2018-Jun-15 00:30N 40°38' W 074°10'0 0.0
2018-Jun-14 23:59N 40°38' W 074°10'0 0.0
2018-Jun-14 23:30N 40°38' W 074°10'0 0.0
2018-Jun-14 22:59N 40°38' W 074°10'0 0.0
2018-Jun-14 22:30N 40°38' W 074°10'0 0.0
2018-Jun-14 22:00N 40°38' W 074°10'0 0.0
2018-Jun-14 21:31N 40°38' W 074°10'0 0.0
2018-Jun-14 21:00N 40°38' W 074°10'0 0.0
2018-Jun-14 20:31N 40°38' W 074°10'0 0.0
2018-Jun-14 20:00N 40°38' W 074°10'0 0.0
2018-Jun-14 19:30N 40°38' W 074°10'0 0.0
2018-Jun-14 19:01N 40°38' W 074°10'0 0.0
2018-Jun-14 18:30N 40°38' W 074°10'0 0.0
2018-Jun-14 18:00N 40°38' W 074°10'0 0.0
2018-Jun-14 17:31N 40°38' W 074°10'0 0.0
2018-Jun-14 17:00N 40°38' W 074°10'0 0.0
2018-Jun-14 16:30N 40°38' W 074°10'0 0.0
2018-Jun-14 16:01N 40°38' W 074°10'0 0.0
2018-Jun-14 15:30N 40°38' W 074°10'0 0.0
2018-Jun-14 15:00N 40°38' W 074°10'0 0.0
2018-Jun-14 14:29N 40°38' W 074°10'0 0.0
2018-Jun-14 14:01N 40°38' W 074°10'0 0.0
2018-Jun-14 13:30N 40°38' W 074°10'0 0.0
2018-Jun-14 13:00N 40°38' W 074°10'2 3.6
2018-Jun-14 12:31N 40°40' W 074°08'1 1.1
2018-Jun-14 12:01N 40°40' W 074°08'0 0.0
2018-Jun-14 11:31N 40°40' W 074°08'0 0.0
2018-Jun-14 11:00N 40°40' W 074°08'3 4.4
2018-Jun-14 10:21N 40°39' W 074°11'0 0.1
2018-Jun-14 09:56N 40°39' W 074°11'2 5.4
2018-Jun-14 09:31N 40°39' W 074°08'4 7.6
2018-Jun-14 09:01N 40°38' W 074°03'1 2.4
2018-Jun-14 08:30N 40°39' W 074°05'4 1.3
2018-Jun-14 05:25N 40°38' W 074°10'2 4.4
2018-Jun-14 05:01N 40°39' W 074°08'1 2.4
2018-Jun-14 04:30N 40°39' W 074°09'1 2.3
2018-Jun-14 04:00N 40°41' W 074°08'1 1.6
2018-Jun-14 03:31N 40°40' W 074°09'2 3.3
2018-Jun-14 03:00N 40°38' W 074°10'0 0.0
2018-Jun-14 02:29N 40°38' W 074°10'3 6.5
2018-Jun-14 02:00N 40°39' W 074°06'0 0.1
2018-Jun-14 01:31N 40°39' W 074°06'0 0.0
2018-Jun-14 01:00N 40°39' W 074°06'1 1.3
2018-Jun-14 00:30N 40°39' W 074°05'1 2.1
2018-Jun-14 00:01N 40°40' W 074°04'3 5.6
2018-Jun-13 23:28N 40°39' W 074°08'2 3.5
2018-Jun-13 23:01N 40°38' W 074°10'0 0.0
2018-Jun-13 22:31N 40°38' W 074°10'0 0.0
2018-Jun-13 22:00N 40°38' W 074°10'0 0.0
2018-Jun-13 21:28N 40°38' W 074°10'2 3.5
2018-Jun-13 21:00N 40°39' W 074°08'1 2.9
2018-Jun-13 20:30N 40°40' W 074°09'0 0.0
2018-Jun-13 20:00N 40°40' W 074°09'4 8.3
2018-Jun-13 19:30N 40°38' W 074°04'10 3.6
2018-Jun-13 16:50N 40°29' W 074°03'410.4
2018-Jun-13 16:25N 40°33' W 074°02'512.7
2018-Jun-13 16:00N 40°38' W 074°03'5 8.6
2018-Jun-13 15:26N 40°38' W 074°10'0 0.0
2018-Jun-13 14:49N 40°38' W 074°10'0 0.0
2018-Jun-13 14:28N 40°38' W 074°10'0 0.0
2018-Jun-13 14:00N 40°38' W 074°10'0 0.0
2018-Jun-13 13:30N 40°38' W 074°10'0 0.0
2018-Jun-13 12:57N 40°38' W 074°10'0 0.0
2018-Jun-13 12:12N 40°38' W 074°10'0 0.0
2018-Jun-13 11:53N 40°38' W 074°10'0 0.0
2018-Jun-13 11:27N 40°38' W 074°10'0 0.0
2018-Jun-13 10:56N 40°38' W 074°10'2 3.5
2018-Jun-13 10:30N 40°40' W 074°09'1 2.8
2018-Jun-13 10:00N 40°41' W 074°09'0 0.9
2018-Jun-13 09:30N 40°41' W 074°09'2 4.6
2018-Jun-13 09:00N 40°39' W 074°09'4 7.4
2018-Jun-13 08:30N 40°39' W 074°04'1 2.0
2018-Jun-13 08:00N 40°39' W 074°05'4 1.6
2018-Jun-13 05:47N 40°38' W 074°10'0 0.0
2018-Jun-13 04:27N 40°38' W 074°10'0 0.0
2018-Jun-13 03:58N 40°38' W 074°10'0 0.0
2018-Jun-13 02:38N 40°38' W 074°10'1 4.5
2018-Jun-13 02:30N 40°39' W 074°09'2 3.2
2018-Jun-13 02:00N 40°40' W 074°09'1 2.2
2018-Jun-13 01:29N 40°39' W 074°09'3 5.4
2018-Jun-13 01:00N 40°39' W 074°05'4 7.1
2018-Jun-13 00:30N 40°41' W 074°02'4 8.6
2018-Jun-13 00:00N 40°46' W 074°01'8 1.8
2018-Jun-12 19:35N 40°53' W 073°56'3 9.1
2018-Jun-12 19:12N 40°49' W 073°58'2 8.7
2018-Jun-12 18:59N 40°48' W 073°59'4 8.3
2018-Jun-12 18:30N 40°44' W 074°01'4 8.3
2018-Jun-12 18:00N 40°40' W 074°03'5 9.8
2018-Jun-12 17:30N 40°38' W 074°09'3 0.6
2018-Jun-12 12:56N 40°38' W 074°12'0 0.1
2018-Jun-12 12:30N 40°38' W 074°12'0 0.0
2018-Jun-12 11:57N 40°38' W 074°12'1 2.1
2018-Jun-12 11:24N 40°39' W 074°11'3 6.0
2018-Jun-12 10:57N 40°39' W 074°07'3 5.6
2018-Jun-12 10:28N 40°39' W 074°04'2 3.8
2018-Jun-12 10:00N 40°37' W 074°03'5 3.6
2018-Jun-12 08:33N 40°38' W 074°10'0 0.0
2018-Jun-12 08:20N 40°38' W 074°10'0 0.0
2018-Jun-12 07:37N 40°38' W 074°10'0 0.0
2018-Jun-12 07:30N 40°38' W 074°10'0 0.0
2018-Jun-12 06:52N 40°38' W 074°10'0 0.0
2018-Jun-12 06:30N 40°38' W 074°10'0 0.0
2018-Jun-12 05:47N 40°38' W 074°10'0 0.0
2018-Jun-12 05:26N 40°38' W 074°10'0 0.0
2018-Jun-12 00:07N 40°38' W 074°10'0 0.0
2018-Jun-11 23:57N 40°38' W 074°10'0 0.0
2018-Jun-11 16:49N 40°38' W 074°10'0 0.0
2018-Jun-11 16:30N 40°38' W 074°10'0 0.0
2018-Jun-11 15:38N 40°38' W 074°10'0 0.0
2018-Jun-11 15:30N 40°38' W 074°10'2 3.3
2018-Jun-11 14:55N 40°40' W 074°08'2 3.5
2018-Jun-11 14:29N 40°39' W 074°09'2 4.8
2018-Jun-11 14:00N 40°39' W 074°06'3 1.0
2018-Jun-11 10:52N 40°39' W 074°10'2 6.2
2018-Jun-11 10:29N 40°40' W 074°08'1 0.9
2018-Jun-11 09:11N 40°39' W 074°09'1 2.9
2018-Jun-11 08:55N 40°39' W 074°09'3 7.1
2018-Jun-11 08:30N 40°39' W 074°05'1 2.4
2018-Jun-11 07:59N 40°38' W 074°04'5 5.3
2018-Jun-11 07:07N 40°38' W 074°10'0 1.0
2018-Jun-11 06:53N 40°38' W 074°10'1 2.6
2018-Jun-11 06:30N 40°39' W 074°09'1 2.5
2018-Jun-11 06:00N 40°40' W 074°08'0 0.0
2018-Jun-11 05:30N 40°40' W 074°08'0 0.0
2018-Jun-11 04:42N 40°40' W 074°08'0 0.0
2018-Jun-11 04:30N 40°40' W 074°08'0 0.0
2018-Jun-11 03:40N 40°40' W 074°08'0 0.0
2018-Jun-11 03:30N 40°40' W 074°08'0 0.0
2018-Jun-11 03:00N 40°40' W 074°08'0 0.0
2018-Jun-11 02:30N 40°40' W 074°08'0 0.0
2018-Jun-11 02:00N 40°40' W 074°08'0 0.0
2018-Jun-11 01:30N 40°40' W 074°08'0 0.0
2018-Jun-11 01:00N 40°40' W 074°08'0 0.0
2018-Jun-11 00:30N 40°40' W 074°08'0 0.0
2018-Jun-11 00:00N 40°40' W 074°08'4 2.6
2018-Jun-10 22:33N 40°38' W 074°12'0 0.1
2018-Jun-10 22:30N 40°38' W 074°12'0 0.7
2018-Jun-10 21:57N 40°38' W 074°12'2 4.2
2018-Jun-10 21:29N 40°39' W 074°09'3 6.0
2018-Jun-10 21:00N 40°39' W 074°05'2 3.3
2018-Jun-10 20:30N 40°39' W 074°03'2 3.8
2018-Jun-10 20:00N 40°40' W 074°05'0 0.0
2018-Jun-10 19:30N 40°40' W 074°05'0 0.0
2018-Jun-10 19:00N 40°40' W 074°05'0 0.0
2018-Jun-10 18:28N 40°40' W 074°05'0 0.0
2018-Jun-10 18:00N 40°40' W 074°05'0 0.0
2018-Jun-10 17:30N 40°40' W 074°05'0 0.0
2018-Jun-10 17:00N 40°40' W 074°05'0 0.0
2018-Jun-10 16:28N 40°40' W 074°05'0 0.0
2018-Jun-10 16:00N 40°40' W 074°05'0 0.0
2018-Jun-10 15:29N 40°40' W 074°05'0 0.0
2018-Jun-10 15:00N 40°40' W 074°05'0 0.0
2018-Jun-10 14:00N 40°40' W 074°05'0 0.0
2018-Jun-10 13:30N 40°40' W 074°05'0 0.0
2018-Jun-10 13:00N 40°40' W 074°05'0 0.0
2018-Jun-10 12:30N 40°40' W 074°05'0 0.0
2018-Jun-10 12:00N 40°40' W 074°05'0 0.0
2018-Jun-10 11:30N 40°40' W 074°05'0 0.0
2018-Jun-10 11:00N 40°40' W 074°05'0 0.0
2018-Jun-10 10:30N 40°40' W 074°05'0 0.0
2018-Jun-10 10:00N 40°40' W 074°05'0 0.0
2018-Jun-10 09:29N 40°40' W 074°05'0 0.0
2018-Jun-10 09:00N 40°40' W 074°05'0 0.0
2018-Jun-10 08:30N 40°40' W 074°05'0 0.0
2018-Jun-10 08:00N 40°40' W 074°05'0 0.0
2018-Jun-10 07:30N 40°40' W 074°05'0 0.0
2018-Jun-10 07:00N 40°40' W 074°05'0 0.0
2018-Jun-10 06:30N 40°40' W 074°05'0 0.0
2018-Jun-10 06:00N 40°40' W 074°05'0 0.0
2018-Jun-10 05:30N 40°40' W 074°05'0 0.0
2018-Jun-10 05:00N 40°40' W 074°05'0 0.0
2018-Jun-10 04:30N 40°40' W 074°05'0 0.0
2018-Jun-10 04:00N 40°40' W 074°05'0 0.0
2018-Jun-10 03:30N 40°40' W 074°05'0 0.0
2018-Jun-10 03:00N 40°40' W 074°05'0 0.0
2018-Jun-10 02:30N 40°40' W 074°05'0 0.0
2018-Jun-10 02:00N 40°40' W 074°05'0 0.0
2018-Jun-10 01:30N 40°40' W 074°05'0 0.0
2018-Jun-10 01:00N 40°40' W 074°05'0 0.0
2018-Jun-10 00:30N 40°40' W 074°05'2 4.2
2018-Jun-10 00:00N 40°40' W 074°02'4 7.0
2018-Jun-09 23:30N 40°42' W 073°58'0 0.1
2018-Jun-09 23:00N 40°42' W 073°58'1 1.8
2018-Jun-09 22:30N 40°42' W 073°60'2 4.8
2018-Jun-09 22:00N 40°41' W 074°02'2 3.5
2018-Jun-09 21:30N 40°40' W 074°03'1 1.1
2018-Jun-09 21:00N 40°40' W 074°04'0 0.7
2018-Jun-09 20:30N 40°40' W 074°05'0 0.0
2018-Jun-09 20:00N 40°40' W 074°05'0 0.0
2018-Jun-09 19:30N 40°40' W 074°05'0 0.0
2018-Jun-09 19:00N 40°40' W 074°05'0 0.0
2018-Jun-09 18:30N 40°40' W 074°05'0 0.0
2018-Jun-09 18:00N 40°40' W 074°05'0 0.0
2018-Jun-09 17:30N 40°40' W 074°05'0 0.0
2018-Jun-09 17:00N 40°40' W 074°05'0 0.0
2018-Jun-09 16:30N 40°40' W 074°05'  

Dump ship's entire track history